sensor_id;sensor_type;location;lat;lon;timestamp;temperature;humidity
4985;DHT22;2509;49.902;8.600;2023-07-20T00:01:33;20.80;99.90
4985;DHT22;2509;49.902;8.600;2023-07-20T00:04:35;20.70;99.90
4985;DHT22;2509;49.902;8.600;2023-07-20T00:07:37;20.80;99.90
4985;DHT22;2509;49.902;8.600;2023-07-20T00:10:40;20.70;99.90
4985;DHT22;2509;49.902;8.600;2023-07-20T00:13:43;20.70;99.90
4985;DHT22;2509;49.902;8.600;2023-07-20T00:16:45;20.80;99.90
4985;DHT22;2509;49.902;8.600;2023-07-20T00:19:49;20.80;99.90
4985;DHT22;2509;49.902;8.600;2023-07-20T00:22:51;20.70;99.90
4985;DHT22;2509;49.902;8.600;2023-07-20T00:25:55;20.70;99.90
4985;DHT22;2509;49.902;8.600;2023-07-20T00:28:58;20.70;99.90
4985;DHT22;2509;49.902;8.600;2023-07-20T00:32:00;20.70;99.90
4985;DHT22;2509;49.902;8.600;2023-07-20T00:35:02;20.70;99.90
4985;DHT22;2509;49.902;8.600;2023-07-20T00:38:04;20.70;99.90
4985;DHT22;2509;49.902;8.600;2023-07-20T00:41:06;20.70;99.90
4985;DHT22;2509;49.902;8.600;2023-07-20T00:44:09;20.70;99.90
4985;DHT22;2509;49.902;8.600;2023-07-20T00:47:10;20.70;99.90
4985;DHT22;2509;49.902;8.600;2023-07-20T00:50:12;20.70;99.90
4985;DHT22;2509;49.902;8.600;2023-07-20T00:53:14;20.70;99.90
4985;DHT22;2509;49.902;8.600;2023-07-20T00:56:16;20.70;99.90
4985;DHT22;2509;49.902;8.600;2023-07-20T00:59:20;20.60;99.90
4985;DHT22;2509;49.902;8.600;2023-07-20T01:02:22;20.60;99.90
4985;DHT22;2509;49.902;8.600;2023-07-20T01:05:30;20.50;99.90
4985;DHT22;2509;49.902;8.600;2023-07-20T01:08:40;20.50;99.90
4985;DHT22;2509;49.902;8.600;2023-07-20T01:11:51;20.40;99.90
4985;DHT22;2509;49.902;8.600;2023-07-20T01:14:55;20.40;99.90
4985;DHT22;2509;49.902;8.600;2023-07-20T01:17:56;20.20;99.90
4985;DHT22;2509;49.902;8.600;2023-07-20T01:21:06;20.00;99.90
4985;DHT22;2509;49.902;8.600;2023-07-20T01:24:24;19.90;99.90
4985;DHT22;2509;49.902;8.600;2023-07-20T01:27:43;19.80;99.90
4985;DHT22;2509;49.902;8.600;2023-07-20T01:30:59;19.70;99.90
4985;DHT22;2509;49.902;8.600;2023-07-20T01:34:06;19.70;99.90
4985;DHT22;2509;49.902;8.600;2023-07-20T01:37:10;19.60;99.90
4985;DHT22;2509;49.902;8.600;2023-07-20T01:40:13;19.60;99.90
4985;DHT22;2509;49.902;8.600;2023-07-20T01:43:16;19.60;99.90
4985;DHT22;2509;49.902;8.600;2023-07-20T01:46:18;19.50;99.90
4985;DHT22;2509;49.902;8.600;2023-07-20T01:49:21;19.40;99.90
4985;DHT22;2509;49.902;8.600;2023-07-20T01:52:23;19.30;99.90
4985;DHT22;2509;49.902;8.600;2023-07-20T01:55:24;19.30;99.90
4985;DHT22;2509;49.902;8.600;2023-07-20T01:58:26;19.30;99.90
4985;DHT22;2509;49.902;8.600;2023-07-20T02:01:28;19.20;99.90
4985;DHT22;2509;49.902;8.600;2023-07-20T02:04:31;19.10;99.90
4985;DHT22;2509;49.902;8.600;2023-07-20T02:07:33;19.00;99.90
4985;DHT22;2509;49.902;8.600;2023-07-20T02:10:35;18.90;99.90
4985;DHT22;2509;49.902;8.600;2023-07-20T02:13:36;18.90;99.90
4985;DHT22;2509;49.902;8.600;2023-07-20T02:16:38;19.00;99.90
4985;DHT22;2509;49.902;8.600;2023-07-20T02:19:42;18.90;99.90
4985;DHT22;2509;49.902;8.600;2023-07-20T02:22:43;18.90;99.90
4985;DHT22;2509;49.902;8.600;2023-07-20T02:25:45;18.90;99.90
4985;DHT22;2509;49.902;8.600;2023-07-20T02:28:47;18.80;99.90
4985;DHT22;2509;49.902;8.600;2023-07-20T02:31:48;18.80;99.90
4985;DHT22;2509;49.902;8.600;2023-07-20T02:34:52;18.80;99.90
4985;DHT22;2509;49.902;8.600;2023-07-20T02:37:54;18.70;99.90
4985;DHT22;2509;49.902;8.600;2023-07-20T02:40:55;18.60;99.90
4985;DHT22;2509;49.902;8.600;2023-07-20T02:43:57;18.60;99.90
4985;DHT22;2509;49.902;8.600;2023-07-20T02:46:59;18.50;99.90
4985;DHT22;2509;49.902;8.600;2023-07-20T02:50:05;18.50;99.90
4985;DHT22;2509;49.902;8.600;2023-07-20T02:53:07;18.60;99.90
4985;DHT22;2509;49.902;8.600;2023-07-20T02:56:09;18.60;99.90
4985;DHT22;2509;49.902;8.600;2023-07-20T02:59:10;18.60;99.90
4985;DHT22;2509;49.902;8.600;2023-07-20T03:02:12;18.60;99.90
4985;DHT22;2509;49.902;8.600;2023-07-20T03:05:15;18.50;99.90
4985;DHT22;2509;49.902;8.600;2023-07-20T03:08:18;18.40;99.90
4985;DHT22;2509;49.902;8.600;2023-07-20T03:11:20;18.40;99.90
4985;DHT22;2509;49.902;8.600;2023-07-20T03:14:22;18.40;99.90
4985;DHT22;2509;49.902;8.600;2023-07-20T03:17:24;18.40;99.90
4985;DHT22;2509;49.902;8.600;2023-07-20T03:20:27;18.30;99.90
4985;DHT22;2509;49.902;8.600;2023-07-20T03:23:29;18.40;99.90
4985;DHT22;2509;49.902;8.600;2023-07-20T03:26:30;18.30;99.90
4985;DHT22;2509;49.902;8.600;2023-07-20T03:29:32;18.20;99.90
4985;DHT22;2509;49.902;8.600;2023-07-20T03:32:34;18.10;99.90
4985;DHT22;2509;49.902;8.600;2023-07-20T03:35:37;18.00;99.90
4985;DHT22;2509;49.902;8.600;2023-07-20T03:38:39;18.00;99.90
4985;DHT22;2509;49.902;8.600;2023-07-20T03:41:40;17.90;99.90
4985;DHT22;2509;49.902;8.600;2023-07-20T03:44:43;17.80;99.90
4985;DHT22;2509;49.902;8.600;2023-07-20T03:47:45;17.70;99.90
4985;DHT22;2509;49.902;8.600;2023-07-20T03:50:51;17.70;99.90
4985;DHT22;2509;49.902;8.600;2023-07-20T03:53:53;17.70;99.90
4985;DHT22;2509;49.902;8.600;2023-07-20T03:56:54;17.70;99.90
4985;DHT22;2509;49.902;8.600;2023-07-20T03:59:56;17.70;99.90
4985;DHT22;2509;49.902;8.600;2023-07-20T04:02:58;17.70;99.90
4985;DHT22;2509;49.902;8.600;2023-07-20T04:06:01;17.70;99.90
4985;DHT22;2509;49.902;8.600;2023-07-20T04:09:03;17.60;99.90
4985;DHT22;2509;49.902;8.600;2023-07-20T04:12:06;17.60;99.90
4985;DHT22;2509;49.902;8.600;2023-07-20T04:15:09;17.60;99.90
4985;DHT22;2509;49.902;8.600;2023-07-20T04:18:11;17.60;99.90
4985;DHT22;2509;49.902;8.600;2023-07-20T04:21:14;17.60;99.90
4985;DHT22;2509;49.902;8.600;2023-07-20T04:24:15;17.50;99.90
4985;DHT22;2509;49.902;8.600;2023-07-20T04:27:17;17.40;99.90
4985;DHT22;2509;49.902;8.600;2023-07-20T04:30:19;17.40;99.90
4985;DHT22;2509;49.902;8.600;2023-07-20T04:33:23;17.40;99.90
4985;DHT22;2509;49.902;8.600;2023-07-20T04:36:26;17.40;99.90
4985;DHT22;2509;49.902;8.600;2023-07-20T04:39:27;17.30;99.90
4985;DHT22;2509;49.902;8.600;2023-07-20T04:42:29;17.30;99.90
4985;DHT22;2509;49.902;8.600;2023-07-20T04:45:31;17.30;99.90
4985;DHT22;2509;49.902;8.600;2023-07-20T04:48:32;17.40;99.90
4985;DHT22;2509;49.902;8.600;2023-07-20T04:51:36;17.40;99.90
4985;DHT22;2509;49.902;8.600;2023-07-20T04:54:37;17.50;99.90
4985;DHT22;2509;49.902;8.600;2023-07-20T04:57:39;17.40;99.90
4985;DHT22;2509;49.902;8.600;2023-07-20T05:00:41;17.40;99.90
4985;DHT22;2509;49.902;8.600;2023-07-20T05:03:43;17.40;99.90
4985;DHT22;2509;49.902;8.600;2023-07-20T05:06:46;17.30;99.90
4985;DHT22;2509;49.902;8.600;2023-07-20T05:09:48;17.30;99.90
4985;DHT22;2509;49.902;8.600;2023-07-20T05:12:49;17.40;99.90
4985;DHT22;2509;49.902;8.600;2023-07-20T05:15:51;17.50;99.90
4985;DHT22;2509;49.902;8.600;2023-07-20T05:18:53;17.60;99.90
4985;DHT22;2509;49.902;8.600;2023-07-20T05:21:59;17.60;99.90
4985;DHT22;2509;49.902;8.600;2023-07-20T05:25:00;17.70;99.90
4985;DHT22;2509;49.902;8.600;2023-07-20T05:28:02;17.80;99.90
4985;DHT22;2509;49.902;8.600;2023-07-20T05:31:04;17.80;99.90
4985;DHT22;2509;49.902;8.600;2023-07-20T05:34:06;17.80;99.90
4985;DHT22;2509;49.902;8.600;2023-07-20T05:37:09;17.90;99.90
4985;DHT22;2509;49.902;8.600;2023-07-20T05:40:11;17.90;99.90
4985;DHT22;2509;49.902;8.600;2023-07-20T05:43:13;18.00;99.90
4985;DHT22;2509;49.902;8.600;2023-07-20T05:46:15;18.10;99.90
4985;DHT22;2509;49.902;8.600;2023-07-20T05:49:17;18.10;99.90
4985;DHT22;2509;49.902;8.600;2023-07-20T05:52:20;18.20;99.90
4985;DHT22;2509;49.902;8.600;2023-07-20T05:55:22;18.20;99.90
4985;DHT22;2509;49.902;8.600;2023-07-20T05:58:24;18.20;99.90
4985;DHT22;2509;49.902;8.600;2023-07-20T06:01:25;18.30;99.90
4985;DHT22;2509;49.902;8.600;2023-07-20T06:04:28;18.40;99.90
4985;DHT22;2509;49.902;8.600;2023-07-20T06:07:31;18.40;99.90
4985;DHT22;2509;49.902;8.600;2023-07-20T06:10:33;18.50;99.90
4985;DHT22;2509;49.902;8.600;2023-07-20T06:13:35;18.50;99.90
4985;DHT22;2509;49.902;8.600;2023-07-20T06:16:37;18.60;99.90
4985;DHT22;2509;49.902;8.600;2023-07-20T06:19:38;18.60;99.90
4985;DHT22;2509;49.902;8.600;2023-07-20T06:22:41;18.60;99.90
4985;DHT22;2509;49.902;8.600;2023-07-20T06:25:43;18.80;99.90
4985;DHT22;2509;49.902;8.600;2023-07-20T06:28:45;18.90;99.90
4985;DHT22;2509;49.902;8.600;2023-07-20T06:31:47;19.10;99.90
4985;DHT22;2509;49.902;8.600;2023-07-20T06:34:49;19.20;99.90
4985;DHT22;2509;49.902;8.600;2023-07-20T06:37:52;19.30;99.90
4985;DHT22;2509;49.902;8.600;2023-07-20T06:40:54;19.50;99.90
4985;DHT22;2509;49.902;8.600;2023-07-20T06:43:56;19.60;99.90
4985;DHT22;2509;49.902;8.600;2023-07-20T06:46:59;19.70;99.90
4985;DHT22;2509;49.902;8.600;2023-07-20T06:50:01;19.70;99.90
4985;DHT22;2509;49.902;8.600;2023-07-20T06:53:04;19.90;99.90
4985;DHT22;2509;49.902;8.600;2023-07-20T06:56:06;19.90;99.90
4985;DHT22;2509;49.902;8.600;2023-07-20T06:59:07;19.90;99.90
4985;DHT22;2509;49.902;8.600;2023-07-20T07:02:09;20.00;99.90
4985;DHT22;2509;49.902;8.600;2023-07-20T07:05:11;20.10;99.90
4985;DHT22;2509;49.902;8.600;2023-07-20T07:08:15;20.20;99.90
4985;DHT22;2509;49.902;8.600;2023-07-20T07:11:17;20.50;99.90
4985;DHT22;2509;49.902;8.600;2023-07-20T07:14:20;20.80;99.90
4985;DHT22;2509;49.902;8.600;2023-07-20T07:17:22;21.00;99.90
4985;DHT22;2509;49.902;8.600;2023-07-20T07:20:24;21.20;99.90
4985;DHT22;2509;49.902;8.600;2023-07-20T07:23:27;21.30;99.90
4985;DHT22;2509;49.902;8.600;2023-07-20T07:26:29;21.40;99.90
4985;DHT22;2509;49.902;8.600;2023-07-20T07:29:31;21.40;99.90
4985;DHT22;2509;49.902;8.600;2023-07-20T07:32:33;21.40;99.90
4985;DHT22;2509;49.902;8.600;2023-07-20T07:35:34;21.60;99.90
4985;DHT22;2509;49.902;8.600;2023-07-20T07:38:37;21.70;99.90
4985;DHT22;2509;49.902;8.600;2023-07-20T07:41:39;21.90;99.90
4985;DHT22;2509;49.902;8.600;2023-07-20T07:44:41;22.00;99.90
4985;DHT22;2509;49.902;8.600;2023-07-20T07:47:43;22.00;99.90
4985;DHT22;2509;49.902;8.600;2023-07-20T07:50:44;22.00;99.90
4985;DHT22;2509;49.902;8.600;2023-07-20T07:53:47;21.90;99.90
4985;DHT22;2509;49.902;8.600;2023-07-20T07:56:50;22.00;99.90
4985;DHT22;2509;49.902;8.600;2023-07-20T07:59:52;21.90;99.90
4985;DHT22;2509;49.902;8.600;2023-07-20T08:02:53;21.90;99.90
4985;DHT22;2509;49.902;8.600;2023-07-20T08:05:55;21.90;99.90
4985;DHT22;2509;49.902;8.600;2023-07-20T08:08:58;22.00;99.90
4985;DHT22;2509;49.902;8.600;2023-07-20T08:12:00;22.20;99.90
4985;DHT22;2509;49.902;8.600;2023-07-20T08:15:02;22.30;99.90
4985;DHT22;2509;49.902;8.600;2023-07-20T08:18:04;22.40;99.90
4985;DHT22;2509;49.902;8.600;2023-07-20T08:21:08;22.60;99.90
4985;DHT22;2509;49.902;8.600;2023-07-20T08:24:11;22.60;99.90
4985;DHT22;2509;49.902;8.600;2023-07-20T08:27:12;22.70;99.90
4985;DHT22;2509;49.902;8.600;2023-07-20T08:30:14;22.60;99.90
4985;DHT22;2509;49.902;8.600;2023-07-20T08:33:17;22.50;99.90
4985;DHT22;2509;49.902;8.600;2023-07-20T08:36:20;22.60;99.90
4985;DHT22;2509;49.902;8.600;2023-07-20T08:39:23;22.70;99.90
4985;DHT22;2509;49.902;8.600;2023-07-20T08:42:25;22.90;99.90
4985;DHT22;2509;49.902;8.600;2023-07-20T08:45:28;23.10;99.90
4985;DHT22;2509;49.902;8.600;2023-07-20T08:48:31;23.30;99.90
4985;DHT22;2509;49.902;8.600;2023-07-20T08:51:33;23.10;99.90
4985;DHT22;2509;49.902;8.600;2023-07-20T08:54:39;23.00;99.90
4985;DHT22;2509;49.902;8.600;2023-07-20T08:57:41;23.20;99.90
4985;DHT22;2509;49.902;8.600;2023-07-20T09:00:44;23.50;99.90
4985;DHT22;2509;49.902;8.600;2023-07-20T09:03:46;23.70;99.90
4985;DHT22;2509;49.902;8.600;2023-07-20T09:06:49;23.80;99.90
4985;DHT22;2509;49.902;8.600;2023-07-20T09:09:52;23.80;99.90
4985;DHT22;2509;49.902;8.600;2023-07-20T09:12:54;23.90;99.90
4985;DHT22;2509;49.902;8.600;2023-07-20T09:15:56;23.90;99.90
4985;DHT22;2509;49.902;8.600;2023-07-20T09:18:59;23.90;99.90
4985;DHT22;2509;49.902;8.600;2023-07-20T09:22:01;23.80;99.90
4985;DHT22;2509;49.902;8.600;2023-07-20T09:25:06;23.80;99.90
4985;DHT22;2509;49.902;8.600;2023-07-20T09:28:08;23.90;99.90
4985;DHT22;2509;49.902;8.600;2023-07-20T09:31:15;24.10;99.90
4985;DHT22;2509;49.902;8.600;2023-07-20T09:34:19;24.30;99.90
4985;DHT22;2509;49.902;8.600;2023-07-20T09:37:21;24.80;99.90
4985;DHT22;2509;49.902;8.600;2023-07-20T09:40:24;24.90;98.70
4985;DHT22;2509;49.902;8.600;2023-07-20T09:43:28;24.90;96.20
4985;DHT22;2509;49.902;8.600;2023-07-20T09:46:41;25.00;97.20
4985;DHT22;2509;49.902;8.600;2023-07-20T09:49:43;25.40;96.50
4985;DHT22;2509;49.902;8.600;2023-07-20T09:52:45;25.60;96.60
4985;DHT22;2509;49.902;8.600;2023-07-20T09:55:48;25.80;96.10
4985;DHT22;2509;49.902;8.600;2023-07-20T09:58:50;25.80;96.10
4985;DHT22;2509;49.902;8.600;2023-07-20T10:01:53;25.60;95.80
4985;DHT22;2509;49.902;8.600;2023-07-20T10:04:57;25.60;97.00
4985;DHT22;2509;49.902;8.600;2023-07-20T10:08:03;25.80;96.90
4985;DHT22;2509;49.902;8.600;2023-07-20T10:11:08;26.00;95.60
4985;DHT22;2509;49.902;8.600;2023-07-20T10:14:16;26.40;93.80
4985;DHT22;2509;49.902;8.600;2023-07-20T10:17:21;26.70;91.60
4985;DHT22;2509;49.902;8.600;2023-07-20T10:20:25;27.00;92.20
4985;DHT22;2509;49.902;8.600;2023-07-20T10:23:29;26.80;93.20
4985;DHT22;2509;49.902;8.600;2023-07-20T10:26:32;26.60;93.10
4985;DHT22;2509;49.902;8.600;2023-07-20T10:29:34;26.50;93.00
4985;DHT22;2509;49.902;8.600;2023-07-20T10:32:37;26.40;93.70
4985;DHT22;2509;49.902;8.600;2023-07-20T10:35:53;26.30;92.30
4985;DHT22;2509;49.902;8.600;2023-07-20T10:38:56;26.20;92.70
4985;DHT22;2509;49.902;8.600;2023-07-20T10:42:03;26.20;93.00
4985;DHT22;2509;49.902;8.600;2023-07-20T10:45:08;26.00;91.50
4985;DHT22;2509;49.902;8.600;2023-07-20T10:48:14;25.70;93.20
4985;DHT22;2509;49.902;8.600;2023-07-20T10:51:20;25.90;92.90
4985;DHT22;2509;49.902;8.600;2023-07-20T10:54:47;25.90;92.80
4985;DHT22;2509;49.902;8.600;2023-07-20T10:58:09;25.90;93.30
4985;DHT22;2509;49.902;8.600;2023-07-20T11:01:14;26.20;93.70
4985;DHT22;2509;49.902;8.600;2023-07-20T11:04:17;26.40;91.60
4985;DHT22;2509;49.902;8.600;2023-07-20T11:07:38;26.50;90.40
4985;DHT22;2509;49.902;8.600;2023-07-20T11:10:40;26.50;92.90
4985;DHT22;2509;49.902;8.600;2023-07-20T11:13:53;26.90;93.40
4985;DHT22;2509;49.902;8.600;2023-07-20T11:16:55;27.40;90.20
4985;DHT22;2509;49.902;8.600;2023-07-20T11:20:01;27.60;88.60
4985;DHT22;2509;49.902;8.600;2023-07-20T11:23:04;27.50;89.70
4985;DHT22;2509;49.902;8.600;2023-07-20T11:26:08;27.70;87.30
4985;DHT22;2509;49.902;8.600;2023-07-20T11:29:13;27.60;86.50
4985;DHT22;2509;49.902;8.600;2023-07-20T11:32:20;28.20;88.00
4985;DHT22;2509;49.902;8.600;2023-07-20T11:35:22;28.90;85.50
4985;DHT22;2509;49.902;8.600;2023-07-20T11:38:24;29.50;86.50
4985;DHT22;2509;49.902;8.600;2023-07-20T11:41:26;30.00;82.80
4985;DHT22;2509;49.902;8.600;2023-07-20T11:44:39;29.50;83.40
4985;DHT22;2509;49.902;8.600;2023-07-20T11:47:41;29.80;82.70
4985;DHT22;2509;49.902;8.600;2023-07-20T11:50:43;29.40;83.00
4985;DHT22;2509;49.902;8.600;2023-07-20T11:53:45;29.50;83.20
4985;DHT22;2509;49.902;8.600;2023-07-20T11:56:48;30.40;81.70
4985;DHT22;2509;49.902;8.600;2023-07-20T11:59:55;31.20;79.60
4985;DHT22;2509;49.902;8.600;2023-07-20T12:02:59;31.10;81.20
4985;DHT22;2509;49.902;8.600;2023-07-20T12:06:06;30.80;81.80
4985;DHT22;2509;49.902;8.600;2023-07-20T12:09:14;30.80;81.10
4985;DHT22;2509;49.902;8.600;2023-07-20T12:12:18;30.80;81.60
4985;DHT22;2509;49.902;8.600;2023-07-20T12:15:24;30.60;81.80
4985;DHT22;2509;49.902;8.600;2023-07-20T12:18:34;30.70;79.70
4985;DHT22;2509;49.902;8.600;2023-07-20T12:21:37;31.40;78.10
4985;DHT22;2509;49.902;8.600;2023-07-20T12:24:40;32.00;77.60
4985;DHT22;2509;49.902;8.600;2023-07-20T12:27:47;32.70;76.10
4985;DHT22;2509;49.902;8.600;2023-07-20T12:30:50;32.50;75.90
4985;DHT22;2509;49.902;8.600;2023-07-20T12:33:59;32.20;74.80
4985;DHT22;2509;49.902;8.600;2023-07-20T12:37:03;32.10;74.90
4985;DHT22;2509;49.902;8.600;2023-07-20T12:40:06;31.80;75.70
4985;DHT22;2509;49.902;8.600;2023-07-20T12:43:11;30.60;79.10
4985;DHT22;2509;49.902;8.600;2023-07-20T12:46:14;30.30;78.50
4985;DHT22;2509;49.902;8.600;2023-07-20T12:49:16;31.30;80.20
4985;DHT22;2509;49.902;8.600;2023-07-20T12:52:18;32.00;78.20
4985;DHT22;2509;49.902;8.600;2023-07-20T12:55:19;31.10;77.80
4985;DHT22;2509;49.902;8.600;2023-07-20T12:58:21;30.20;80.00
4985;DHT22;2509;49.902;8.600;2023-07-20T13:01:25;29.70;80.60
4985;DHT22;2509;49.902;8.600;2023-07-20T13:04:27;29.40;81.90
4985;DHT22;2509;49.902;8.600;2023-07-20T13:07:30;29.30;83.70
4985;DHT22;2509;49.902;8.600;2023-07-20T13:10:32;29.10;81.80
4985;DHT22;2509;49.902;8.600;2023-07-20T13:13:34;28.60;82.70
4985;DHT22;2509;49.902;8.600;2023-07-20T13:16:37;28.30;83.40
4985;DHT22;2509;49.902;8.600;2023-07-20T13:19:39;28.70;83.90
4985;DHT22;2509;49.902;8.600;2023-07-20T13:22:40;29.80;84.60
4985;DHT22;2509;49.902;8.600;2023-07-20T13:25:42;30.00;82.60
4985;DHT22;2509;49.902;8.600;2023-07-20T13:28:44;29.70;82.90
4985;DHT22;2509;49.902;8.600;2023-07-20T13:31:47;29.20;83.90
4985;DHT22;2509;49.902;8.600;2023-07-20T13:34:49;28.70;83.80
4985;DHT22;2509;49.902;8.600;2023-07-20T13:37:51;28.50;83.50
4985;DHT22;2509;49.902;8.600;2023-07-20T13:40:53;28.30;84.10
4985;DHT22;2509;49.902;8.600;2023-07-20T13:43:54;28.30;83.60
4985;DHT22;2509;49.902;8.600;2023-07-20T13:46:57;29.00;81.70
4985;DHT22;2509;49.902;8.600;2023-07-20T13:49:59;29.60;80.50
4985;DHT22;2509;49.902;8.600;2023-07-20T13:53:01;29.60;79.90
4985;DHT22;2509;49.902;8.600;2023-07-20T13:56:03;29.20;80.60
4985;DHT22;2509;49.902;8.600;2023-07-20T13:59:05;29.20;81.10
4985;DHT22;2509;49.902;8.600;2023-07-20T14:02:09;29.90;81.00
4985;DHT22;2509;49.902;8.600;2023-07-20T14:05:11;31.30;79.20
4985;DHT22;2509;49.902;8.600;2023-07-20T14:08:16;32.60;75.80
4985;DHT22;2509;49.902;8.600;2023-07-20T14:11:18;33.00;74.50
4985;DHT22;2509;49.902;8.600;2023-07-20T14:14:20;32.10;75.30
4985;DHT22;2509;49.902;8.600;2023-07-20T14:17:24;32.20;75.50
4985;DHT22;2509;49.902;8.600;2023-07-20T14:20:25;32.80;73.70
4985;DHT22;2509;49.902;8.600;2023-07-20T14:23:28;32.90;72.50
4985;DHT22;2509;49.902;8.600;2023-07-20T14:26:29;33.30;73.10
4985;DHT22;2509;49.902;8.600;2023-07-20T14:29:31;34.00;71.60
4985;DHT22;2509;49.902;8.600;2023-07-20T14:32:38;33.60;72.80
4985;DHT22;2509;49.902;8.600;2023-07-20T14:35:40;32.90;72.80
4985;DHT22;2509;49.902;8.600;2023-07-20T14:38:42;31.80;72.40
4985;DHT22;2509;49.902;8.600;2023-07-20T14:41:43;31.40;73.20
4985;DHT22;2509;49.902;8.600;2023-07-20T14:44:45;30.90;72.90
4985;DHT22;2509;49.902;8.600;2023-07-20T14:47:48;30.90;74.40
4985;DHT22;2509;49.902;8.600;2023-07-20T14:50:54;30.60;75.40
4985;DHT22;2509;49.902;8.600;2023-07-20T14:53:56;31.20;75.10
4985;DHT22;2509;49.902;8.600;2023-07-20T14:56:57;32.50;72.20
4985;DHT22;2509;49.902;8.600;2023-07-20T15:00:00;33.70;71.70
4985;DHT22;2509;49.902;8.600;2023-07-20T15:03:03;34.00;69.10
4985;DHT22;2509;49.902;8.600;2023-07-20T15:06:10;33.10;71.20
4985;DHT22;2509;49.902;8.600;2023-07-20T15:09:12;33.20;72.00
4985;DHT22;2509;49.902;8.600;2023-07-20T15:12:14;33.80;71.90
4985;DHT22;2509;49.902;8.600;2023-07-20T15:15:16;33.90;72.70
4985;DHT22;2509;49.902;8.600;2023-07-20T15:18:19;35.00;68.80
4985;DHT22;2509;49.902;8.600;2023-07-20T15:21:21;35.20;67.00
4985;DHT22;2509;49.902;8.600;2023-07-20T15:24:24;33.60;68.00
4985;DHT22;2509;49.902;8.600;2023-07-20T15:27:26;31.90;72.50
4985;DHT22;2509;49.902;8.600;2023-07-20T15:30:28;31.70;73.90
4985;DHT22;2509;49.902;8.600;2023-07-20T15:33:31;31.30;74.40
4985;DHT22;2509;49.902;8.600;2023-07-20T15:36:33;31.00;75.30
4985;DHT22;2509;49.902;8.600;2023-07-20T15:39:35;30.70;75.70
4985;DHT22;2509;49.902;8.600;2023-07-20T15:42:36;30.60;74.50
4985;DHT22;2509;49.902;8.600;2023-07-20T15:45:38;30.60;75.20
4985;DHT22;2509;49.902;8.600;2023-07-20T15:48:42;31.30;75.20
4985;DHT22;2509;49.902;8.600;2023-07-20T15:51:43;32.40;73.50
4985;DHT22;2509;49.902;8.600;2023-07-20T15:54:46;31.90;74.20
4985;DHT22;2509;49.902;8.600;2023-07-20T15:57:48;31.10;74.90
4985;DHT22;2509;49.902;8.600;2023-07-20T16:00:53;30.40;75.50
4985;DHT22;2509;49.902;8.600;2023-07-20T16:03:58;29.80;76.40
4985;DHT22;2509;49.902;8.600;2023-07-20T16:07:00;29.40;77.60
4985;DHT22;2509;49.902;8.600;2023-07-20T16:10:02;29.20;78.00
4985;DHT22;2509;49.902;8.600;2023-07-20T16:13:04;28.80;78.30
4985;DHT22;2509;49.902;8.600;2023-07-20T16:16:06;28.40;79.80
4985;DHT22;2509;49.902;8.600;2023-07-20T16:19:09;28.40;79.40
4985;DHT22;2509;49.902;8.600;2023-07-20T16:22:11;28.30;79.50
4985;DHT22;2509;49.902;8.600;2023-07-20T16:25:13;28.40;79.20
4985;DHT22;2509;49.902;8.600;2023-07-20T16:28:17;28.60;79.50
4985;DHT22;2509;49.902;8.600;2023-07-20T16:31:19;28.40;79.80
4985;DHT22;2509;49.902;8.600;2023-07-20T16:34:23;28.10;80.10
4985;DHT22;2509;49.902;8.600;2023-07-20T16:37:24;27.90;79.90
4985;DHT22;2509;49.902;8.600;2023-07-20T16:40:26;27.70;80.40
4985;DHT22;2509;49.902;8.600;2023-07-20T16:43:28;27.70;80.80
4985;DHT22;2509;49.902;8.600;2023-07-20T16:46:30;27.60;80.40
4985;DHT22;2509;49.902;8.600;2023-07-20T16:49:37;27.50;82.00
4985;DHT22;2509;49.902;8.600;2023-07-20T16:52:38;27.40;82.00
4985;DHT22;2509;49.902;8.600;2023-07-20T16:55:40;27.10;82.40
4985;DHT22;2509;49.902;8.600;2023-07-20T16:58:42;27.10;82.70
4985;DHT22;2509;49.902;8.600;2023-07-20T17:01:44;27.00;82.80
4985;DHT22;2509;49.902;8.600;2023-07-20T17:04:48;27.10;83.20
4985;DHT22;2509;49.902;8.600;2023-07-20T17:07:50;27.30;82.10
4985;DHT22;2509;49.902;8.600;2023-07-20T17:10:55;27.30;82.90
4985;DHT22;2509;49.902;8.600;2023-07-20T17:13:57;27.20;81.90
4985;DHT22;2509;49.902;8.600;2023-07-20T17:17:02;27.20;82.30
4985;DHT22;2509;49.902;8.600;2023-07-20T17:20:06;27.30;83.60
4985;DHT22;2509;49.902;8.600;2023-07-20T17:23:11;27.30;86.30
4985;DHT22;2509;49.902;8.600;2023-07-20T17:26:13;27.00;88.70
4985;DHT22;2509;49.902;8.600;2023-07-20T17:29:15;26.90;88.80
4985;DHT22;2509;49.902;8.600;2023-07-20T17:32:17;26.80;87.90
4985;DHT22;2509;49.902;8.600;2023-07-20T17:35:20;26.50;86.20
4985;DHT22;2509;49.902;8.600;2023-07-20T17:38:22;26.40;90.30
4985;DHT22;2509;49.902;8.600;2023-07-20T17:41:24;26.30;89.00
4985;DHT22;2509;49.902;8.600;2023-07-20T17:44:26;26.00;89.90
4985;DHT22;2509;49.902;8.600;2023-07-20T17:47:28;25.70;88.90
4985;DHT22;2509;49.902;8.600;2023-07-20T17:50:32;25.50;89.90
4985;DHT22;2509;49.902;8.600;2023-07-20T17:53:34;25.40;91.70
4985;DHT22;2509;49.902;8.600;2023-07-20T17:56:36;25.30;92.00
4985;DHT22;2509;49.902;8.600;2023-07-20T17:59:38;25.40;92.80
4985;DHT22;2509;49.902;8.600;2023-07-20T18:02:40;25.40;94.30
4985;DHT22;2509;49.902;8.600;2023-07-20T18:05:44;25.40;94.70
4985;DHT22;2509;49.902;8.600;2023-07-20T18:08:49;25.40;95.70
4985;DHT22;2509;49.902;8.600;2023-07-20T18:11:51;25.30;94.50
4985;DHT22;2509;49.902;8.600;2023-07-20T18:14:53;25.30;94.90
4985;DHT22;2509;49.902;8.600;2023-07-20T18:17:55;25.30;96.70
4985;DHT22;2509;49.902;8.600;2023-07-20T18:20:58;25.20;95.50
4985;DHT22;2509;49.902;8.600;2023-07-20T18:24:00;25.20;96.30
4985;DHT22;2509;49.902;8.600;2023-07-20T18:27:02;25.10;94.70
4985;DHT22;2509;49.902;8.600;2023-07-20T18:30:05;25.00;94.30
4985;DHT22;2509;49.902;8.600;2023-07-20T18:33:07;24.80;91.30
4985;DHT22;2509;49.902;8.600;2023-07-20T18:36:11;24.30;91.60
4985;DHT22;2509;49.902;8.600;2023-07-20T18:39:13;24.00;92.00
4985;DHT22;2509;49.902;8.600;2023-07-20T18:42:15;23.90;92.90
4985;DHT22;2509;49.902;8.600;2023-07-20T18:45:17;23.80;93.10
4985;DHT22;2509;49.902;8.600;2023-07-20T18:48:19;23.80;92.70
4985;DHT22;2509;49.902;8.600;2023-07-20T18:51:23;23.70;92.70
4985;DHT22;2509;49.902;8.600;2023-07-20T18:54:25;23.70;92.40
4985;DHT22;2509;49.902;8.600;2023-07-20T18:57:29;23.70;92.90
4985;DHT22;2509;49.902;8.600;2023-07-20T19:00:31;23.70;92.90
4985;DHT22;2509;49.902;8.600;2023-07-20T19:03:33;23.60;93.00
4985;DHT22;2509;49.902;8.600;2023-07-20T19:06:36;23.40;93.30
4985;DHT22;2509;49.902;8.600;2023-07-20T19:09:38;23.40;93.30
4985;DHT22;2509;49.902;8.600;2023-07-20T19:12:40;23.40;93.50
4985;DHT22;2509;49.902;8.600;2023-07-20T19:15:47;23.30;93.90
4985;DHT22;2509;49.902;8.600;2023-07-20T19:18:49;23.30;93.70
4985;DHT22;2509;49.902;8.600;2023-07-20T19:21:53;23.30;94.10
4985;DHT22;2509;49.902;8.600;2023-07-20T19:24:55;23.40;93.90
4985;DHT22;2509;49.902;8.600;2023-07-20T19:27:57;23.40;93.80
4985;DHT22;2509;49.902;8.600;2023-07-20T19:30:59;23.30;94.20
4985;DHT22;2509;49.902;8.600;2023-07-20T19:34:00;23.30;93.90
4985;DHT22;2509;49.902;8.600;2023-07-20T19:37:04;23.20;94.20
4985;DHT22;2509;49.902;8.600;2023-07-20T19:40:07;23.10;94.70
4985;DHT22;2509;49.902;8.600;2023-07-20T19:43:10;23.10;94.70
4985;DHT22;2509;49.902;8.600;2023-07-20T19:46:14;23.10;94.70
4985;DHT22;2509;49.902;8.600;2023-07-20T19:49:16;23.00;94.80
4985;DHT22;2509;49.902;8.600;2023-07-20T19:52:20;22.90;95.30
4985;DHT22;2509;49.902;8.600;2023-07-20T19:55:21;22.90;95.10